Terminal Aerodrome Forecast
Issued by NWS

Home | Current Version | Previous Version | Text Only | Print | Product List | Glossary On
Versions: 1 2 3 4 5 6 7 8 9 10 11 12 13 14 15 16 17 18 19 20 21 22 23 24
293
FTUS45 KREV 250528
TAFCXP
TAF
KCXP 250528Z 2506/2606 25008G16KT P6SM VCSH SCT035 BKN090
     FM250700 28007KT P6SM SCT090 BKN150
     FM251400 30006KT P6SM FEW090 BKN150
     FM252000 05007KT P6SM SCT150
     FM260100 28009KT P6SM SCT080 BKN150=

USA.gov is the U.S. government's official web portal to all federal, state and local government web resources and services.